createdAt,value
2022-08-26T00:01:54.104Z,97149.85
2022-08-26T00:04:58.387Z,97145.44
2022-08-26T00:07:36.189Z,97144.69
2022-08-26T00:10:14.087Z,97143.77
2022-08-26T00:12:51.589Z,97142.77
2022-08-26T00:15:30.917Z,97141.76
2022-08-26T00:18:21.710Z,97142.69
2022-08-26T00:21:00.592Z,97141.06
2022-08-26T00:23:42.337Z,97139.58
2022-08-26T00:26:16.849Z,97144.05
2022-08-26T00:28:55.070Z,97139.00
2022-08-26T00:31:34.019Z,97139.55
2022-08-26T00:34:11.292Z,97137.30
2022-08-26T00:36:51.979Z,97133.80
2022-08-26T00:39:30.563Z,97135.45
2022-08-26T00:42:10.979Z,97134.00
2022-08-26T00:44:47.806Z,97135.05
2022-08-26T00:47:36.148Z,97135.67
2022-08-26T00:50:16.610Z,97137.95
2022-08-26T00:52:54.683Z,97140.52
2022-08-26T00:55:44.086Z,97141.96
2022-08-26T00:58:21.643Z,97143.48
2022-08-26T01:01:01.307Z,97139.91
2022-08-26T01:03:37.869Z,97140.61
2022-08-26T01:06:16.815Z,97140.82
2022-08-26T01:08:53.590Z,97142.27
2022-08-26T01:11:34.116Z,97139.61
2022-08-26T01:14:10.300Z,97141.95
2022-08-26T01:16:50.802Z,97142.23
2022-08-26T01:19:46.757Z,97144.01
2022-08-26T01:22:31.772Z,97144.61
2022-08-26T01:25:13.051Z,97142.92
2022-08-26T01:27:46.033Z,97142.62
2022-08-26T01:30:32.847Z,97146.39
2022-08-26T01:33:10.135Z,97146.80
2022-08-26T01:35:48.868Z,97144.44
2022-08-26T01:38:28.294Z,97141.44
2022-08-26T01:41:16.022Z,97140.91
2022-08-26T01:43:59.060Z,97142.43
2022-08-26T01:46:34.008Z,97146.55
2022-08-26T01:49:11.298Z,97146.88
2022-08-26T01:51:48.450Z,97145.02
2022-08-26T01:54:31.064Z,97145.95
2022-08-26T01:57:13.778Z,97144.29
2022-08-26T01:59:47.681Z,97145.76
2022-08-26T02:02:21.615Z,97142.13
2022-08-26T02:05:02.161Z,97145.02
2022-08-26T02:07:41.694Z,97144.81
2022-08-26T02:10:17.305Z,97143.17
2022-08-26T02:12:55.782Z,97140.52
2022-08-26T02:15:37.036Z,97139.14
2022-08-26T02:18:13.968Z,97139.17
2022-08-26T02:20:52.036Z,97143.41
2022-08-26T02:23:38.152Z,97148.34
2022-08-26T02:26:26.916Z,97150.14
2022-08-26T02:29:16.464Z,97151.69
2022-08-26T02:31:53.142Z,97154.67
2022-08-26T02:34:39.313Z,97154.63
2022-08-26T02:37:19.923Z,97155.90
2022-08-26T02:40:04.895Z,97155.35
2022-08-26T02:42:39.921Z,97154.91
2022-08-26T02:45:23.834Z,97156.23
2022-08-26T02:48:01.995Z,97151.75
2022-08-26T02:50:38.357Z,97148.19
2022-08-26T02:53:14.864Z,97150.21
2022-08-26T02:55:55.375Z,97146.09
2022-08-26T02:58:37.276Z,97144.02
2022-08-26T03:01:32.958Z,97146.27
2022-08-26T03:04:15.193Z,97146.46
2022-08-26T03:06:53.058Z,97145.94
2022-08-26T03:12:30.324Z,97146.48
2022-08-26T03:15:17.420Z,97150.08
2022-08-26T03:17:59.875Z,97149.04
2022-08-26T03:20:40.021Z,97154.67
2022-08-26T03:23:37.966Z,97155.51
2022-08-26T03:26:18.465Z,97156.55
2022-08-26T03:29:13.127Z,97152.05
2022-08-26T03:31:47.239Z,97153.45
2022-08-26T03:34:25.249Z,97155.23
2022-08-26T03:37:03.281Z,97153.83
2022-08-26T03:39:41.385Z,97152.40
2022-08-26T03:42:22.346Z,97154.04
2022-08-26T03:44:54.709Z,97153.34
2022-08-26T03:47:38.460Z,97150.97
2022-08-26T03:50:29.764Z,97152.86
2022-08-26T03:53:12.917Z,97153.36
2022-08-26T03:55:55.726Z,97158.04
2022-08-26T03:58:43.050Z,97158.76
2022-08-26T04:01:44.850Z,97156.98
2022-08-26T04:04:22.629Z,97155.65
2022-08-26T04:07:13.441Z,97157.27
2022-08-26T04:09:47.623Z,97160.25
2022-08-26T04:12:27.066Z,97157.39
2022-08-26T04:15:09.058Z,97155.42
2022-08-26T04:17:47.716Z,97154.14
2022-08-26T04:20:23.120Z,97157.19
2022-08-26T04:22:57.455Z,97156.84
2022-08-26T04:25:37.797Z,97157.20
2022-08-26T04:28:16.108Z,97157.38
2022-08-26T04:30:50.963Z,97154.68
2022-08-26T04:33:34.390Z,97153.80
2022-08-26T04:36:20.136Z,97153.48
2022-08-26T04:38:58.370Z,97153.97
2022-08-26T04:41:38.519Z,97157.05
2022-08-26T04:44:17.555Z,97156.66
2022-08-26T04:47:06.716Z,97156.86
2022-08-26T04:49:44.410Z,97158.86
2022-08-26T04:52:23.027Z,97158.23
2022-08-26T04:54:57.900Z,97160.84
2022-08-26T04:57:34.883Z,97164.52
2022-08-26T05:00:16.673Z,97167.73
2022-08-26T05:02:55.928Z,97169.83
2022-08-26T05:05:36.947Z,97165.10
2022-08-26T05:08:11.425Z,97166.30
2022-08-26T05:10:58.526Z,97162.39
2022-08-26T05:13:36.935Z,97163.91
2022-08-26T05:16:19.217Z,97165.41
2022-08-26T05:19:00.077Z,97163.33
2022-08-26T05:21:37.863Z,97163.34
2022-08-26T05:24:25.906Z,97163.59
2022-08-26T05:27:02.165Z,97164.70
2022-08-26T05:29:40.476Z,97165.17
2022-08-26T05:32:15.327Z,97163.16
2022-08-26T05:34:58.594Z,97161.19
2022-08-26T05:40:26.996Z,97165.61
2022-08-26T05:43:13.099Z,97165.39
2022-08-26T05:45:52.572Z,97166.88
2022-08-26T05:48:25.928Z,97169.91
2022-08-26T05:51:08.279Z,97166.66
2022-08-26T05:53:55.068Z,97161.48
2022-08-26T05:56:30.194Z,97160.70
2022-08-26T05:59:06.065Z,97163.96
2022-08-26T06:01:58.377Z,97163.74
2022-08-26T06:04:34.236Z,97163.67
2022-08-26T06:07:11.477Z,97157.96
2022-08-26T06:10:31.697Z,97157.45
2022-08-26T06:13:08.914Z,97155.89
2022-08-26T06:15:49.196Z,97158.66
2022-08-26T06:18:28.971Z,97158.93
2022-08-26T06:21:16.149Z,97154.77
2022-08-26T06:24:11.270Z,97155.96
2022-08-26T06:26:50.441Z,97156.23
2022-08-26T06:29:29.973Z,97157.21
2022-08-26T06:32:15.293Z,97149.91
2022-08-26T06:34:50.133Z,97152.20
2022-08-26T06:37:27.625Z,97150.40
2022-08-26T06:40:10.246Z,97150.22
2022-08-26T06:42:47.002Z,97150.88
2022-08-26T06:45:28.897Z,97150.02
2022-08-26T06:48:27.866Z,97152.59
2022-08-26T06:51:19.418Z,97155.52
2022-08-26T06:54:23.535Z,97154.11
2022-08-26T06:57:01.257Z,97160.71
2022-08-26T06:59:39.230Z,97160.63
2022-08-26T07:02:21.999Z,97160.01
2022-08-26T07:05:25.265Z,97160.29
2022-08-26T07:14:15.816Z,97136.73
2022-08-26T07:17:13.383Z,97131.73
2022-08-26T07:19:55.897Z,97124.64
2022-08-26T07:22:32.036Z,97123.85
2022-08-26T07:25:32.415Z,97118.92
2022-08-26T07:28:43.895Z,97111.69
2022-08-26T07:31:27.459Z,97110.43
2022-08-26T07:34:09.736Z,97109.42
2022-08-26T07:36:48.493Z,97106.60
2022-08-26T07:39:31.552Z,97104.69
2022-08-26T07:42:16.758Z,97101.58
2022-08-26T07:45:00.386Z,97097.67
2022-08-26T07:47:35.967Z,97096.13
2022-08-26T07:50:11.821Z,97097.16
2022-08-26T07:52:55.036Z,97094.70
2022-08-26T07:55:35.834Z,97093.07
2022-08-26T07:58:16.344Z,97092.20
2022-08-26T08:00:52.813Z,97091.31
2022-08-26T08:03:54.159Z,97091.44
2022-08-26T08:06:57.912Z,97089.58
2022-08-26T08:09:41.746Z,97087.92
2022-08-26T08:12:25.769Z,97083.40
2022-08-26T08:14:57.856Z,97082.31
2022-08-26T08:17:31.459Z,97073.61
2022-08-26T08:20:07.822Z,97073.78
2022-08-26T08:22:40.099Z,97076.63
2022-08-26T08:25:14.187Z,97066.96
2022-08-26T08:27:46.350Z,97067.33
2022-08-26T08:30:22.946Z,97061.35
2022-08-26T08:32:56.132Z,97060.61
2022-08-26T08:35:31.066Z,97055.67
2022-08-26T08:38:06.704Z,97055.69
2022-08-26T08:40:49.024Z,97055.63
2022-08-26T08:43:40.732Z,97055.55
2022-08-26T08:46:18.471Z,97052.27
2022-08-26T08:49:01.994Z,97049.21
2022-08-26T08:51:52.874Z,97042.48
2022-08-26T08:54:33.827Z,97044.11
2022-08-26T08:57:29.990Z,97039.88
2022-08-26T09:00:30.246Z,97036.54
2022-08-26T09:03:31.655Z,97036.05
2022-08-26T09:06:42.535Z,97035.50
2022-08-26T09:09:46.957Z,97033.97
2022-08-26T09:12:29.773Z,97033.43
2022-08-26T09:15:28.557Z,97033.00
2022-08-26T09:18:18.968Z,97028.28
2022-08-26T09:21:01.791Z,97020.03
2022-08-26T09:23:41.772Z,97016.56
2022-08-26T09:26:16.560Z,97014.00
2022-08-26T09:28:58.070Z,97013.36
2022-08-26T09:31:38.706Z,97004.23
2022-08-26T09:34:30.841Z,97009.42
2022-08-26T09:37:05.800Z,97007.69
2022-08-26T09:39:43.576Z,97004.27
2022-08-26T09:42:33.895Z,97006.18
2022-08-26T09:45:11.704Z,96999.98
2022-08-26T09:47:51.970Z,97002.58
2022-08-26T09:50:34.431Z,97001.65
2022-08-26T09:53:28.788Z,97002.90
2022-08-26T09:56:24.259Z,97003.81
2022-08-26T09:59:02.787Z,97004.55
2022-08-26T10:01:45.716Z,97000.15
2022-08-26T10:04:32.855Z,96996.81
2022-08-26T10:07:35.412Z,96992.73
2022-08-26T10:10:27.147Z,96996.38
2022-08-26T10:14:05.204Z,96994.17
2022-08-26T10:16:59.364Z,96990.22
2022-08-26T10:19:56.855Z,96983.62
2022-08-26T10:23:02.833Z,96983.27
2022-08-26T10:25:54.388Z,96982.71
2022-08-26T10:32:28.096Z,96971.03
2022-08-26T10:35:07.824Z,96971.02
2022-08-26T10:38:07.151Z,96970.96
2022-08-26T10:41:02.820Z,96970.90
2022-08-26T10:44:02.505Z,96967.45
2022-08-26T10:46:50.028Z,96967.62
2022-08-26T10:49:27.382Z,96963.66
2022-08-26T10:52:22.863Z,96964.41
2022-08-26T10:55:24.627Z,96957.92
2022-08-26T10:58:13.822Z,96952.13
2022-08-26T11:01:41.037Z,96952.09
2022-08-26T11:04:43.264Z,96947.38
2022-08-26T11:07:40.478Z,96942.29
2022-08-26T11:10:24.926Z,96938.33
2022-08-26T11:13:09.567Z,96937.66
2022-08-26T11:16:05.769Z,96932.69
2022-08-26T11:19:04.215Z,96934.34
2022-08-26T11:22:01.972Z,96935.52
2022-08-26T11:24:44.173Z,96933.27
2022-08-26T11:27:29.035Z,96938.66
2022-08-26T11:30:07.771Z,96940.61
2022-08-26T11:32:51.086Z,96939.30
2022-08-26T11:35:32.877Z,96940.83
2022-08-26T11:38:27.683Z,96937.20
2022-08-26T11:41:10.000Z,96936.57
2022-08-26T11:43:50.370Z,96940.69
2022-08-26T11:46:28.342Z,96936.77
2022-08-26T11:49:06.245Z,96933.71
2022-08-26T11:51:48.391Z,96927.79
2022-08-26T11:54:47.463Z,96924.30
2022-08-26T12:00:33.900Z,96917.52
2022-08-26T12:03:18.420Z,96909.41
2022-08-26T12:06:01.368Z,96916.45
2022-08-26T12:08:41.348Z,96913.64
2022-08-26T12:14:31.920Z,96905.42
2022-08-26T12:17:17.935Z,96905.19
2022-08-26T12:20:09.057Z,96902.78
2022-08-26T12:22:50.907Z,96902.29
2022-08-26T12:25:25.879Z,96899.14
2022-08-26T12:28:57.455Z,96894.89
2022-08-26T12:31:40.701Z,96895.48
2022-08-26T12:34:22.778Z,96891.86
2022-08-26T12:39:41.907Z,96886.39
2022-08-26T12:42:18.583Z,96884.95
2022-08-26T12:45:02.618Z,96884.40
2022-08-26T12:47:44.312Z,96882.23
2022-08-26T12:50:21.565Z,96880.83
2022-08-26T12:53:20.803Z,96881.34
2022-08-26T12:56:25.452Z,96876.20
2022-08-26T12:59:25.972Z,96876.16
2022-08-26T13:02:12.936Z,96880.73
2022-08-26T13:05:00.865Z,96880.23
2022-08-26T13:07:45.031Z,96879.15
2022-08-26T13:10:43.107Z,96879.14
2022-08-26T13:13:43.874Z,96877.67
2022-08-26T13:16:17.111Z,96877.61
2022-08-26T13:19:02.654Z,96874.16
2022-08-26T13:21:49.766Z,96870.86
2022-08-26T13:24:26.438Z,96866.66
2022-08-26T13:27:02.691Z,96866.05
2022-08-26T13:29:41.719Z,96862.92
2022-08-26T13:32:29.663Z,96859.08
2022-08-26T13:35:08.068Z,96858.08
2022-08-26T13:37:53.663Z,96854.03
2022-08-26T13:40:34.506Z,96856.10
2022-08-26T13:43:26.252Z,96849.09
2022-08-26T13:45:59.750Z,96853.31
2022-08-26T13:48:37.149Z,96854.15
2022-08-26T13:51:20.883Z,96851.90
2022-08-26T13:53:55.719Z,96856.91
2022-08-26T13:56:34.123Z,96859.64
2022-08-26T13:59:11.536Z,96860.63
2022-08-26T14:01:49.521Z,96861.98
2022-08-26T14:04:32.747Z,96858.46
2022-08-26T14:07:10.256Z,96855.23
2022-08-26T14:09:44.472Z,96854.55
2022-08-26T14:15:18.409Z,96849.36
2022-08-26T14:18:00.914Z,96847.92
2022-08-26T14:20:42.292Z,96840.92
2022-08-26T14:23:21.435Z,96839.83
2022-08-26T14:25:54.923Z,96842.98
2022-08-26T14:28:38.639Z,96840.61
2022-08-26T14:31:44.862Z,96839.55
2022-08-26T14:34:26.788Z,96836.75
2022-08-26T14:37:08.205Z,96837.02
2022-08-26T14:39:47.150Z,96833.00
2022-08-26T14:42:31.869Z,96828.56
2022-08-26T14:48:22.016Z,96828.63
2022-08-26T14:51:10.668Z,96829.58
2022-08-26T14:54:10.908Z,96827.52
2022-08-26T14:57:02.275Z,96825.79
2022-08-26T15:02:50.746Z,96826.56
2022-08-26T15:05:52.340Z,96824.11
2022-08-26T15:09:01.589Z,96823.44
2022-08-26T15:11:50.049Z,96826.16
2022-08-26T15:17:43.222Z,96822.02
2022-08-26T15:20:42.017Z,96820.08
2022-08-26T15:23:24.842Z,96817.51
2022-08-26T15:26:12.023Z,96822.44
2022-08-26T15:28:53.885Z,96817.60
2022-08-26T15:31:57.686Z,96814.31
2022-08-26T15:35:03.517Z,96815.95
2022-08-26T15:38:03.871Z,96815.15
2022-08-26T15:41:03.399Z,96815.27
2022-08-26T15:43:38.319Z,96812.59
2022-08-26T15:46:40.776Z,96815.14
2022-08-26T15:49:48.484Z,96816.47
2022-08-26T15:52:24.536Z,96812.97
2022-08-26T15:54:59.387Z,96809.86
2022-08-26T15:57:40.758Z,96810.86
2022-08-26T16:00:25.928Z,96811.63
2022-08-26T16:03:31.895Z,96809.95
2022-08-26T16:06:20.775Z,96810.30
2022-08-26T16:09:07.046Z,96805.58
2022-08-26T16:11:50.282Z,96806.85
2022-08-26T16:15:02.802Z,96805.60
2022-08-26T16:18:06.332Z,96808.01
2022-08-26T16:20:42.161Z,96806.88
2022-08-26T16:23:32.355Z,96806.39
2022-08-26T16:26:42.392Z,96804.76
2022-08-26T16:29:26.032Z,96807.48
2022-08-26T16:32:11.834Z,96808.52
2022-08-26T16:34:56.065Z,96811.45
2022-08-26T16:37:30.405Z,96811.70
2022-08-26T16:40:17.294Z,96808.92
2022-08-26T16:43:02.173Z,96810.18
2022-08-26T16:45:44.798Z,96812.90
2022-08-26T16:48:28.258Z,96810.66
2022-08-26T16:51:12.477Z,96808.98
2022-08-26T16:54:02.711Z,96808.51
2022-08-26T16:56:43.499Z,96806.91
2022-08-26T16:59:23.186Z,96812.48
2022-08-26T17:02:02.950Z,96810.38
2022-08-26T17:04:54.567Z,96809.67
2022-08-26T17:07:39.271Z,96813.70
2022-08-26T17:10:18.829Z,96818.33
2022-08-26T17:12:57.549Z,96821.88
2022-08-26T17:15:32.285Z,96828.40
2022-08-26T17:18:06.330Z,96824.42
2022-08-26T17:20:38.757Z,96827.42
2022-08-26T17:23:11.549Z,96828.41
2022-08-26T17:25:57.430Z,96829.59
2022-08-26T17:28:33.037Z,96831.28
2022-08-26T17:31:08.878Z,96831.06
2022-08-26T17:33:44.431Z,96828.63
2022-08-26T17:36:19.594Z,96832.53
2022-08-26T17:38:52.499Z,96833.98
2022-08-26T17:41:30.662Z,96833.14
2022-08-26T17:44:08.813Z,96834.75
2022-08-26T17:46:46.754Z,96834.61
2022-08-26T17:49:22.088Z,96836.20
2022-08-26T17:52:01.293Z,96839.71
2022-08-26T17:54:37.246Z,96844.21
2022-08-26T17:57:12.514Z,96844.89
2022-08-26T17:59:47.794Z,96845.27
2022-08-26T18:02:24.470Z,96849.64
2022-08-26T18:04:56.543Z,96849.04
2022-08-26T18:07:43.570Z,96847.80
2022-08-26T18:10:47.388Z,96846.66
2022-08-26T18:16:23.258Z,96848.64
2022-08-26T18:19:08.313Z,96848.41
2022-08-26T18:21:43.420Z,96846.69
2022-08-26T18:24:14.572Z,96844.66
2022-08-26T18:26:52.821Z,96843.73
2022-08-26T18:29:50.678Z,96844.74
2022-08-26T18:32:24.412Z,96847.48
2022-08-26T18:35:02.494Z,96847.08
2022-08-26T18:37:38.249Z,96844.18
2022-08-26T18:40:38.440Z,96843.47
2022-08-26T18:43:18.830Z,96842.52
2022-08-26T18:46:05.766Z,96846.20
2022-08-26T18:48:40.897Z,96845.95
2022-08-26T18:51:25.149Z,96849.05
2022-08-26T18:54:08.910Z,96848.64
2022-08-26T18:56:45.143Z,96845.35
2022-08-26T18:59:48.756Z,96845.88
2022-08-26T19:02:21.885Z,96848.20
2022-08-26T19:04:59.341Z,96852.10
2022-08-26T19:07:40.115Z,96856.79
2022-08-26T19:10:41.026Z,96854.96
2022-08-26T19:13:18.243Z,96855.73
2022-08-26T19:15:50.411Z,96853.69
2022-08-26T19:18:25.439Z,96850.84
2022-08-26T19:21:24.714Z,96854.29
2022-08-26T19:24:05.010Z,96857.23
2022-08-26T19:26:48.425Z,96853.55
2022-08-26T19:29:27.025Z,96854.17
2022-08-26T19:31:58.278Z,96851.66
2022-08-26T19:34:33.506Z,96853.92
2022-08-26T19:37:09.103Z,96860.55
2022-08-26T19:39:43.884Z,96861.23
2022-08-26T19:45:20.272Z,96862.67
2022-08-26T19:48:23.415Z,96860.65
2022-08-26T19:51:08.533Z,96865.92
2022-08-26T19:53:44.721Z,96870.36
2022-08-26T19:56:19.728Z,96870.09
2022-08-26T19:58:57.283Z,96871.47
2022-08-26T20:01:35.571Z,96869.78
2022-08-26T20:04:21.625Z,96874.56
2022-08-26T20:06:57.563Z,96873.58
2022-08-26T20:09:39.473Z,96877.60
2022-08-26T20:12:15.548Z,96875.60
2022-08-26T20:14:58.109Z,96875.41
2022-08-26T20:17:36.155Z,96877.30
2022-08-26T20:20:34.301Z,96878.73
2022-08-26T20:23:21.624Z,96876.73
2022-08-26T20:25:54.810Z,96879.04
2022-08-26T20:28:33.033Z,96877.16
2022-08-26T20:31:07.370Z,96875.88
2022-08-26T20:33:46.305Z,96877.24
2022-08-26T20:36:27.678Z,96881.23
2022-08-26T20:39:04.123Z,96883.27
2022-08-26T20:41:41.530Z,96885.30
2022-08-26T20:44:11.645Z,96884.15
2022-08-26T20:46:54.863Z,96886.12
2022-08-26T20:49:31.447Z,96882.99
2022-08-26T20:52:07.607Z,96882.79
2022-08-26T20:54:50.938Z,96883.13
2022-08-26T20:57:29.251Z,96890.09
2022-08-26T21:00:05.513Z,96896.20
2022-08-26T21:02:39.314Z,96892.70
2022-08-26T21:05:13.058Z,96890.09
2022-08-26T21:07:48.973Z,96896.91
2022-08-26T21:10:31.187Z,96896.38
2022-08-26T21:13:12.263Z,96898.52
2022-08-26T21:16:02.059Z,96896.53
2022-08-26T21:18:42.086Z,96896.33
2022-08-26T21:21:19.281Z,96895.04
2022-08-26T21:24:08.949Z,96899.81
2022-08-26T21:26:43.262Z,96902.42
2022-08-26T21:29:23.111Z,96901.13
2022-08-26T21:31:57.983Z,96900.68
2022-08-26T21:34:40.571Z,96903.59
2022-08-26T21:37:20.298Z,96899.98
2022-08-26T21:39:58.046Z,96894.93
2022-08-26T21:42:39.094Z,96897.55
2022-08-26T21:45:16.558Z,96896.98
2022-08-26T21:47:48.316Z,96894.75
2022-08-26T21:50:45.775Z,96892.27
2022-08-26T21:53:33.713Z,96894.87
2022-08-26T21:56:18.004Z,96897.23
2022-08-26T21:58:56.423Z,96900.76
2022-08-26T22:01:41.587Z,96906.79
2022-08-26T22:04:29.391Z,96907.44
2022-08-26T22:07:08.352Z,96907.83
2022-08-26T22:09:50.965Z,96907.45
2022-08-26T22:12:28.825Z,96905.30
2022-08-26T22:15:06.883Z,96906.64
2022-08-26T22:17:49.133Z,96906.27
2022-08-26T22:20:28.465Z,96904.36
2022-08-26T22:23:32.272Z,96900.34
2022-08-26T22:26:25.355Z,96901.36
2022-08-26T22:32:50.218Z,96898.02
2022-08-26T22:35:30.129Z,96898.59
2022-08-26T22:38:07.598Z,96899.55
2022-08-26T22:40:51.439Z,96897.41
2022-08-26T22:43:30.461Z,96894.17
2022-08-26T22:46:11.687Z,96895.63
2022-08-26T22:48:47.187Z,96895.00
2022-08-26T22:51:34.103Z,96895.79
2022-08-26T22:54:10.036Z,96896.90
2022-08-26T22:56:54.000Z,96898.73
2022-08-26T22:59:32.513Z,96901.48
2022-08-26T23:08:02.550Z,96899.88
2022-08-26T23:13:31.687Z,96903.66
2022-08-26T23:16:10.328Z,96905.95
2022-08-26T23:21:44.339Z,96908.29
2022-08-26T23:24:18.461Z,96908.23
2022-08-26T23:26:56.355Z,96909.96
2022-08-26T23:29:30.468Z,96910.52
2022-08-26T23:32:13.758Z,96905.94
2022-08-26T23:35:01.431Z,96902.92
2022-08-26T23:37:46.283Z,96898.73
2022-08-26T23:40:28.037Z,96898.71
2022-08-26T23:46:03.517Z,96900.53
2022-08-26T23:48:42.054Z,96898.86
2022-08-26T23:51:44.435Z,96896.14
2022-08-26T23:54:55.714Z,96896.38
2022-08-26T23:57:36.076Z,96896.48
